createdAt,value
2019-03-27T00:01:07.728Z,33.80
2019-03-27T00:03:34.891Z,33.80
2019-03-27T00:06:02.040Z,33.80
2019-03-27T00:08:28.911Z,33.80
2019-03-27T00:10:55.950Z,33.80
2019-03-27T00:13:22.895Z,33.80
2019-03-27T00:15:49.681Z,33.80
2019-03-27T00:18:16.847Z,33.80
2019-03-27T00:20:43.597Z,33.70
2019-03-27T00:23:10.321Z,33.80
2019-03-27T00:25:37.052Z,33.70
2019-03-27T00:28:03.818Z,33.70
2019-03-27T00:30:30.654Z,33.70
2019-03-27T00:32:57.521Z,33.70
2019-03-27T00:35:24.263Z,33.70
2019-03-27T00:37:51.426Z,33.70
2019-03-27T00:40:18.510Z,33.70
2019-03-27T00:42:45.324Z,33.70
2019-03-27T00:45:25.511Z,33.70
2019-03-27T00:47:40.710Z,33.70
2019-03-27T00:50:07.481Z,33.70
2019-03-27T00:52:34.641Z,33.70
2019-03-27T00:55:02.294Z,33.70
2019-03-27T00:57:29.486Z,33.70
2019-03-27T00:59:56.448Z,33.70
2019-03-27T01:02:23.188Z,33.60
2019-03-27T01:04:49.922Z,33.70
2019-03-27T01:07:16.776Z,33.70
2019-03-27T01:09:43.530Z,33.60
2019-03-27T01:12:10.922Z,33.70
2019-03-27T01:14:37.946Z,33.70
2019-03-27T01:17:04.720Z,34.30
2019-03-27T01:19:31.561Z,33.70
2019-03-27T01:21:58.676Z,33.60
2019-03-27T01:24:25.457Z,33.70
2019-03-27T01:26:52.262Z,33.60
2019-03-27T01:29:19.444Z,33.60
2019-03-27T01:31:47.101Z,33.60
2019-03-27T01:34:13.821Z,33.60
2019-03-27T01:36:40.827Z,33.70
2019-03-27T01:39:08.335Z,33.60
2019-03-27T01:41:35.200Z,33.10
2019-03-27T01:44:01.934Z,33.60
2019-03-27T01:46:28.978Z,33.60
2019-03-27T01:48:55.803Z,33.60
2019-03-27T01:51:22.948Z,33.60
2019-03-27T01:53:49.696Z,33.60
2019-03-27T01:56:16.435Z,33.60
2019-03-27T01:58:43.312Z,33.60
2019-03-27T02:01:10.519Z,33.60
2019-03-27T02:03:37.956Z,33.50
2019-03-27T02:06:05.036Z,33.60
2019-03-27T02:08:31.772Z,33.50
2019-03-27T02:10:58.659Z,34.10
2019-03-27T02:13:25.387Z,33.60
2019-03-27T02:16:05.850Z,33.60
2019-03-27T02:18:20.814Z,33.50
2019-03-27T02:20:47.602Z,33.60
2019-03-27T02:23:14.337Z,34.20
2019-03-27T02:25:41.067Z,33.50
2019-03-27T02:28:07.837Z,33.50
2019-03-27T02:30:34.578Z,33.50
2019-03-27T02:33:01.414Z,33.50
2019-03-27T02:35:28.323Z,33.50
2019-03-27T02:37:55.129Z,33.50
2019-03-27T02:40:22.099Z,33.50
2019-03-27T02:42:50.837Z,33.50
2019-03-27T02:45:17.574Z,33.50
2019-03-27T02:47:44.760Z,33.40
2019-03-27T02:50:11.621Z,33.50
2019-03-27T02:52:39.413Z,33.50
2019-03-27T02:55:06.444Z,33.50
2019-03-27T02:57:34.400Z,33.50
2019-03-27T03:00:01.126Z,33.40
2019-03-27T03:02:28.262Z,33.50
2019-03-27T03:04:54.999Z,33.40
2019-03-27T03:07:21.780Z,33.40
2019-03-27T03:09:49.408Z,34.10
2019-03-27T03:12:16.527Z,33.50
2019-03-27T03:14:43.257Z,33.40
2019-03-27T03:17:10.151Z,33.40
2019-03-27T03:19:36.965Z,33.40
2019-03-27T03:22:03.760Z,33.50
2019-03-27T03:24:31.137Z,33.50
2019-03-27T03:26:58.241Z,33.40
2019-03-27T03:29:25.119Z,33.40
2019-03-27T03:31:52.295Z,33.40
2019-03-27T03:34:19.090Z,33.40
2019-03-27T03:36:46.036Z,33.40
2019-03-27T03:39:13.508Z,33.40
2019-03-27T03:41:40.398Z,33.40
2019-03-27T03:44:07.220Z,33.50
2019-03-27T03:46:34.008Z,33.40
2019-03-27T03:49:00.904Z,33.40
2019-03-27T03:51:27.628Z,33.40
2019-03-27T03:53:54.426Z,33.40
2019-03-27T03:56:21.864Z,33.40
2019-03-27T03:58:49.019Z,33.40
2019-03-27T04:01:16.582Z,33.40
2019-03-27T04:03:43.358Z,33.40
2019-03-27T04:06:11.021Z,33.40
2019-03-27T04:08:37.889Z,33.40
2019-03-27T04:11:04.661Z,33.30
2019-03-27T04:13:31.409Z,33.40
2019-03-27T04:15:58.574Z,33.30
2019-03-27T04:18:25.720Z,33.30
2019-03-27T04:20:52.585Z,33.00
2019-03-27T04:23:19.774Z,33.40
2019-03-27T04:26:07.970Z,33.40
2019-03-27T04:28:15.308Z,33.40
2019-03-27T04:30:42.385Z,33.40
2019-03-27T04:33:09.783Z,33.30
2019-03-27T04:35:36.545Z,33.30
2019-03-27T04:38:03.318Z,33.40
2019-03-27T04:40:30.062Z,33.40
2019-03-27T04:42:56.825Z,33.40
2019-03-27T04:45:23.543Z,33.30
2019-03-27T04:47:50.311Z,33.40
2019-03-27T04:50:17.429Z,33.40
2019-03-27T04:52:45.063Z,33.40
2019-03-27T04:55:11.794Z,33.30
2019-03-27T04:57:39.086Z,33.30
2019-03-27T05:00:06.338Z,33.30
2019-03-27T05:02:33.187Z,33.30
2019-03-27T05:05:00.397Z,33.40
2019-03-27T05:07:27.361Z,33.40
2019-03-27T05:09:54.100Z,33.40
2019-03-27T05:12:21.210Z,33.30
2019-03-27T05:14:47.937Z,33.30
2019-03-27T05:17:14.665Z,33.30
2019-03-27T05:19:41.436Z,33.30
2019-03-27T05:22:08.572Z,33.30
2019-03-27T05:24:35.328Z,33.30
2019-03-27T05:27:02.063Z,33.20
2019-03-27T05:29:29.223Z,33.30
2019-03-27T05:31:56.336Z,33.20
2019-03-27T05:34:23.297Z,33.20
2019-03-27T05:36:50.050Z,33.10
2019-03-27T05:39:16.857Z,33.10
2019-03-27T05:41:45.044Z,33.00
2019-03-27T05:44:12.290Z,32.90
2019-03-27T05:46:39.513Z,33.00
2019-03-27T05:49:06.318Z,32.90
2019-03-27T05:51:33.466Z,32.90
2019-03-27T05:54:00.243Z,32.90
2019-03-27T05:56:27.768Z,32.90
2019-03-27T05:58:54.724Z,32.80
2019-03-27T06:01:21.458Z,32.80
2019-03-27T06:03:48.288Z,32.80
2019-03-27T06:06:15.137Z,33.30
2019-03-27T06:08:41.932Z,32.80
2019-03-27T06:11:08.692Z,32.80
2019-03-27T06:13:35.599Z,32.90
2019-03-27T06:16:02.488Z,32.80
2019-03-27T06:18:29.230Z,32.90
2019-03-27T06:20:56.498Z,32.90
2019-03-27T06:23:23.329Z,32.80
2019-03-27T06:25:50.589Z,32.80
2019-03-27T06:28:17.359Z,32.80
2019-03-27T06:30:44.115Z,32.90
2019-03-27T06:33:10.871Z,32.90
2019-03-27T06:35:37.680Z,32.80
2019-03-27T06:38:04.606Z,32.80
2019-03-27T06:40:31.351Z,32.90
2019-03-27T06:42:58.084Z,32.90
2019-03-27T06:45:25.253Z,32.90
2019-03-27T06:47:52.094Z,32.90
2019-03-27T06:50:19.331Z,32.80
2019-03-27T06:52:46.111Z,32.80
2019-03-27T06:55:13.090Z,32.80
2019-03-27T06:57:40.117Z,32.70
2019-03-27T07:00:08.004Z,32.70
2019-03-27T07:02:34.769Z,32.80
2019-03-27T07:05:01.704Z,32.70
2019-03-27T07:07:28.553Z,32.70
2019-03-27T07:09:55.334Z,32.70
2019-03-27T07:12:22.443Z,32.60
2019-03-27T07:14:49.219Z,32.50
2019-03-27T07:17:16.073Z,32.50
2019-03-27T07:19:42.850Z,32.50
2019-03-27T07:22:09.964Z,32.50
2019-03-27T07:24:36.852Z,32.70
2019-03-27T07:27:04.871Z,32.50
2019-03-27T07:29:31.985Z,32.60
2019-03-27T07:31:59.195Z,32.70
2019-03-27T07:34:26.007Z,32.80
2019-03-27T07:36:56.045Z,32.70
2019-03-27T07:39:21.445Z,32.70
2019-03-27T07:41:48.723Z,32.60
2019-03-27T07:44:15.946Z,32.60
2019-03-27T07:46:44.079Z,32.40
2019-03-27T07:49:10.856Z,32.40
2019-03-27T07:51:37.685Z,32.20
2019-03-27T07:54:04.419Z,32.20
2019-03-27T07:56:31.280Z,32.00
2019-03-27T07:59:00.265Z,32.10
2019-03-27T08:01:28.222Z,32.10
2019-03-27T08:03:55.394Z,32.20
2019-03-27T08:06:22.350Z,32.20
2019-03-27T08:08:49.170Z,32.20
2019-03-27T08:11:15.981Z,32.30
2019-03-27T08:13:43.081Z,32.20
2019-03-27T08:16:09.878Z,31.40
2019-03-27T08:18:36.706Z,30.60
2019-03-27T08:21:04.927Z,30.60
2019-03-27T08:23:32.066Z,31.00
2019-03-27T08:26:01.178Z,31.00
2019-03-27T08:28:28.176Z,29.60
2019-03-27T08:30:55.582Z,29.30
2019-03-27T08:33:22.568Z,28.20
2019-03-27T08:35:49.372Z,28.60
2019-03-27T08:38:16.674Z,28.80
2019-03-27T08:40:43.460Z,28.80
2019-03-27T08:43:20.573Z,29.90
2019-03-27T08:45:39.772Z,29.70
2019-03-27T08:48:06.537Z,29.90
2019-03-27T08:50:33.318Z,29.90
2019-03-27T08:53:00.574Z,29.90
2019-03-27T08:55:27.356Z,29.90
2019-03-27T08:57:54.246Z,29.90
2019-03-27T09:00:46.083Z,29.90
2019-03-27T09:03:15.132Z,29.90
2019-03-27T09:05:42.655Z,30.10
2019-03-27T09:08:11.364Z,30.30
2019-03-27T09:10:38.516Z,30.30
2019-03-27T09:13:05.584Z,30.20
2019-03-27T09:15:32.342Z,30.20
2019-03-27T09:17:59.089Z,30.40
2019-03-27T09:20:26.537Z,30.40
2019-03-27T09:22:55.325Z,30.40
2019-03-27T09:25:22.067Z,30.60
2019-03-27T09:27:49.601Z,30.70
2019-03-27T09:30:17.951Z,30.70
2019-03-27T09:32:45.213Z,30.80
2019-03-27T09:35:12.105Z,30.80
2019-03-27T09:37:38.904Z,30.80
2019-03-27T09:40:06.085Z,30.70
2019-03-27T09:42:33.027Z,30.50
2019-03-27T09:45:00.406Z,30.40
2019-03-27T09:47:27.717Z,30.40
2019-03-27T09:49:55.090Z,30.30
2019-03-27T09:52:21.962Z,30.30
2019-03-27T09:54:48.828Z,30.20
2019-03-27T09:57:15.637Z,30.10
2019-03-27T09:59:42.474Z,30.10
2019-03-27T10:02:09.359Z,30.10
2019-03-27T10:04:36.726Z,30.00
2019-03-27T10:07:04.277Z,30.10
2019-03-27T10:09:31.387Z,30.30
2019-03-27T10:11:58.600Z,30.30
2019-03-27T10:14:25.487Z,30.40
2019-03-27T10:16:52.322Z,30.40
2019-03-27T10:19:19.103Z,30.40
2019-03-27T10:21:45.935Z,30.40
2019-03-27T10:24:12.837Z,30.50
2019-03-27T10:26:42.706Z,30.60
2019-03-27T10:29:08.935Z,30.60
2019-03-27T10:31:35.655Z,30.60
2019-03-27T10:34:05.400Z,30.60
2019-03-27T10:36:33.147Z,30.70
2019-03-27T10:39:00.023Z,30.80
2019-03-27T10:41:26.759Z,30.80
2019-03-27T10:43:53.549Z,30.80
2019-03-27T10:46:20.297Z,30.90
2019-03-27T10:48:52.839Z,30.90
2019-03-27T10:51:18.680Z,30.80
2019-03-27T10:53:45.571Z,30.80
2019-03-27T10:56:12.516Z,30.90
2019-03-27T10:58:39.364Z,31.10
2019-03-27T11:01:07.930Z,31.20
2019-03-27T11:03:34.961Z,31.20
2019-03-27T11:06:02.087Z,31.30
2019-03-27T11:08:29.067Z,31.40
2019-03-27T11:10:55.894Z,31.50
2019-03-27T11:13:34.628Z,31.70
2019-03-27T11:16:01.555Z,31.80
2019-03-27T11:18:28.607Z,32.00
2019-03-27T11:20:55.485Z,32.20
2019-03-27T11:23:22.280Z,32.30
2019-03-27T11:25:49.909Z,32.30
2019-03-27T11:28:18.883Z,32.40
2019-03-27T11:30:48.372Z,32.40
2019-03-27T11:33:15.771Z,32.40
2019-03-27T11:35:42.615Z,32.40
2019-03-27T11:38:09.501Z,32.50
2019-03-27T11:40:36.455Z,32.50
2019-03-27T11:43:03.820Z,32.60
2019-03-27T11:45:31.270Z,32.60
2019-03-27T11:47:58.601Z,32.60
2019-03-27T11:50:25.760Z,32.50
2019-03-27T11:52:52.671Z,32.60
2019-03-27T11:55:19.751Z,32.40
2019-03-27T11:57:46.824Z,32.30
2019-03-27T12:00:14.921Z,32.30
2019-03-27T12:02:42.280Z,32.40
2019-03-27T12:05:09.285Z,32.40
2019-03-27T12:07:36.374Z,32.40
2019-03-27T12:10:05.409Z,32.40
2019-03-27T12:12:32.436Z,32.60
2019-03-27T12:14:59.824Z,32.50
2019-03-27T12:17:26.975Z,32.60
2019-03-27T12:19:53.840Z,33.10
2019-03-27T12:22:20.745Z,32.70
2019-03-27T12:24:47.954Z,32.80
2019-03-27T12:27:14.915Z,32.90
2019-03-27T12:29:43.565Z,32.80
2019-03-27T12:32:13.600Z,33.00
2019-03-27T12:34:40.767Z,33.00
2019-03-27T12:37:08.423Z,33.00
2019-03-27T12:39:40.573Z,33.00
2019-03-27T12:42:07.264Z,33.10
2019-03-27T12:44:34.567Z,33.10
2019-03-27T12:47:01.327Z,33.20
2019-03-27T12:49:28.092Z,33.20
2019-03-27T12:51:54.962Z,33.20
2019-03-27T12:54:21.845Z,33.10
2019-03-27T12:56:48.912Z,33.10
2019-03-27T12:59:15.942Z,33.10
2019-03-27T13:01:43.324Z,33.10
2019-03-27T13:04:10.167Z,33.70
2019-03-27T13:06:37.397Z,33.00
2019-03-27T13:09:06.595Z,33.00
2019-03-27T13:11:36.506Z,33.00
2019-03-27T13:14:02.159Z,33.00
2019-03-27T13:16:28.914Z,33.00
2019-03-27T13:18:56.190Z,33.60
2019-03-27T13:21:26.625Z,33.20
2019-03-27T13:23:52.086Z,33.10
2019-03-27T13:26:18.897Z,33.20
2019-03-27T13:28:49.207Z,33.20
2019-03-27T13:31:15.409Z,33.20
2019-03-27T13:33:42.377Z,33.10
2019-03-27T13:36:09.270Z,33.00
2019-03-27T13:38:36.107Z,33.00
2019-03-27T13:41:03.075Z,32.90
2019-03-27T13:43:29.846Z,33.00
2019-03-27T13:45:57.258Z,32.90
2019-03-27T13:48:25.362Z,33.00
2019-03-27T13:50:52.483Z,32.80
2019-03-27T13:53:19.228Z,32.90
2019-03-27T13:55:46.061Z,32.90
2019-03-27T13:58:12.807Z,32.80
2019-03-27T14:00:39.615Z,33.00
2019-03-27T14:03:06.642Z,32.80
2019-03-27T14:05:33.588Z,32.70
2019-03-27T14:08:00.457Z,32.70
2019-03-27T14:10:27.607Z,32.60
2019-03-27T14:12:54.702Z,32.80
2019-03-27T14:15:22.104Z,32.90
2019-03-27T14:17:49.411Z,32.90
2019-03-27T14:20:16.994Z,32.80
2019-03-27T14:22:47.498Z,32.80
2019-03-27T14:25:14.727Z,32.70
2019-03-27T14:27:45.046Z,32.80
2019-03-27T14:30:15.266Z,32.80
2019-03-27T14:32:43.958Z,32.80
2019-03-27T14:35:11.230Z,33.00
2019-03-27T14:37:38.168Z,32.90
2019-03-27T14:40:06.404Z,32.90
2019-03-27T14:42:35.299Z,33.40
2019-03-27T14:45:06.052Z,32.80
2019-03-27T14:47:33.200Z,32.80
2019-03-27T14:50:00.087Z,32.90
2019-03-27T14:52:27.227Z,32.50
2019-03-27T14:55:30.664Z,32.50
2019-03-27T14:58:08.775Z,32.40
2019-03-27T15:00:37.588Z,32.40
2019-03-27T15:03:08.290Z,32.40
2019-03-27T15:05:35.324Z,32.20
2019-03-27T15:08:04.300Z,31.90
2019-03-27T15:10:31.955Z,32.10
2019-03-27T15:12:58.930Z,32.00
2019-03-27T15:15:26.401Z,32.10
2019-03-27T15:17:53.935Z,32.20
2019-03-27T15:20:21.011Z,32.20
2019-03-27T15:22:48.504Z,32.00
2019-03-27T15:25:15.338Z,32.00
2019-03-27T15:27:42.512Z,32.00
2019-03-27T15:30:13.228Z,32.20
2019-03-27T15:32:40.338Z,32.30
2019-03-27T15:35:07.168Z,32.50
2019-03-27T15:37:34.078Z,32.30
2019-03-27T15:40:00.823Z,32.20
2019-03-27T15:42:27.588Z,31.90
2019-03-27T15:44:54.331Z,31.50
2019-03-27T15:47:21.082Z,31.90
2019-03-27T15:49:47.794Z,31.30
2019-03-27T15:52:14.601Z,31.60
2019-03-27T15:54:41.339Z,31.70
2019-03-27T15:57:08.217Z,31.70
2019-03-27T15:59:34.924Z,32.00
2019-03-27T16:02:01.821Z,32.10
2019-03-27T16:04:28.911Z,32.10
2019-03-27T16:06:56.416Z,32.20
2019-03-27T16:09:23.347Z,33.00
2019-03-27T16:11:51.290Z,32.40
2019-03-27T16:14:18.338Z,32.50
2019-03-27T16:17:01.295Z,32.60
2019-03-27T16:19:14.114Z,32.60
2019-03-27T16:21:40.885Z,32.60
2019-03-27T16:24:07.773Z,32.60
2019-03-27T16:26:34.691Z,32.60
2019-03-27T16:29:02.230Z,32.60
2019-03-27T16:31:29.004Z,32.60
2019-03-27T16:33:55.947Z,32.70
2019-03-27T16:36:23.071Z,32.70
2019-03-27T16:38:49.914Z,32.80
2019-03-27T16:41:17.182Z,32.80
2019-03-27T16:43:44.489Z,32.80
2019-03-27T16:46:11.328Z,32.80
2019-03-27T16:48:38.216Z,32.90
2019-03-27T16:51:04.944Z,32.90
2019-03-27T16:53:31.724Z,33.50
2019-03-27T16:55:58.829Z,33.00
2019-03-27T16:58:26.287Z,33.00
2019-03-27T17:00:53.370Z,33.10
2019-03-27T17:03:20.112Z,33.00
2019-03-27T17:05:53.981Z,33.10
2019-03-27T17:08:15.620Z,33.20
2019-03-27T17:10:42.343Z,33.00
2019-03-27T17:13:09.429Z,33.00
2019-03-27T17:15:36.224Z,33.00
2019-03-27T17:18:03.308Z,33.00
2019-03-27T17:20:31.146Z,32.90
2019-03-27T17:22:58.214Z,32.80
2019-03-27T17:25:25.475Z,32.90
2019-03-27T17:27:55.568Z,32.90
2019-03-27T17:30:21.301Z,33.00
2019-03-27T17:32:48.049Z,33.00
2019-03-27T17:35:15.194Z,33.00
2019-03-27T17:37:41.938Z,33.10
2019-03-27T17:40:08.687Z,33.10
2019-03-27T17:42:35.937Z,33.10
2019-03-27T17:45:05.098Z,33.20
2019-03-27T17:47:31.947Z,33.40
2019-03-27T17:49:58.987Z,33.30
2019-03-27T17:52:25.796Z,33.30
2019-03-27T17:54:52.571Z,33.40
2019-03-27T17:57:19.286Z,33.40
2019-03-27T17:59:46.021Z,33.40
2019-03-27T18:02:12.768Z,33.40
2019-03-27T18:04:39.642Z,33.40
2019-03-27T18:07:06.827Z,33.40
2019-03-27T18:09:33.604Z,33.50
2019-03-27T18:12:00.350Z,33.40
2019-03-27T18:14:27.765Z,33.40
2019-03-27T18:16:54.908Z,33.40
2019-03-27T18:19:21.717Z,33.50
2019-03-27T18:21:48.460Z,33.50
2019-03-27T18:24:15.321Z,33.50
2019-03-27T18:26:42.144Z,33.50
2019-03-27T18:29:08.959Z,33.50
2019-03-27T18:31:35.703Z,33.50
2019-03-27T18:34:02.816Z,33.50
2019-03-27T18:36:29.571Z,33.00
2019-03-27T18:38:56.405Z,33.60
2019-03-27T18:41:23.513Z,33.60
2019-03-27T18:43:50.348Z,33.60
2019-03-27T18:46:17.630Z,33.60
2019-03-27T18:48:44.531Z,33.60
2019-03-27T18:51:11.328Z,33.60
2019-03-27T18:53:38.463Z,33.70
2019-03-27T18:56:05.963Z,33.70
2019-03-27T18:58:32.864Z,33.60
2019-03-27T19:00:59.736Z,33.60
2019-03-27T19:03:26.955Z,33.60
2019-03-27T19:05:54.122Z,33.70
2019-03-27T19:08:21.154Z,33.70
2019-03-27T19:10:47.953Z,33.70
2019-03-27T19:13:14.770Z,33.80
2019-03-27T19:15:41.520Z,33.80
2019-03-27T19:18:08.786Z,33.70
2019-03-27T19:20:36.094Z,33.80
2019-03-27T19:23:02.944Z,33.70
2019-03-27T19:25:30.837Z,33.70
2019-03-27T19:27:57.700Z,33.70
2019-03-27T19:30:24.471Z,33.70
2019-03-27T19:32:51.190Z,33.70
2019-03-27T19:35:18.044Z,33.70
2019-03-27T19:37:44.780Z,33.70
2019-03-27T19:40:11.694Z,33.80
2019-03-27T19:42:38.504Z,33.80
2019-03-27T19:45:05.467Z,34.30
2019-03-27T19:47:32.366Z,33.70
2019-03-27T19:49:59.654Z,33.70
2019-03-27T19:52:26.830Z,33.80
2019-03-27T19:54:53.594Z,33.80
2019-03-27T19:57:20.371Z,34.40
2019-03-27T19:59:47.522Z,33.80
2019-03-27T20:02:14.670Z,33.80
2019-03-27T20:04:41.436Z,33.80
2019-03-27T20:07:08.302Z,33.80
2019-03-27T20:09:35.410Z,33.80
2019-03-27T20:12:02.301Z,33.80
2019-03-27T20:14:29.208Z,33.80
2019-03-27T20:16:56.223Z,33.80
2019-03-27T20:19:23.173Z,34.40
2019-03-27T20:21:50.238Z,33.80
2019-03-27T20:24:17.110Z,33.80
2019-03-27T20:26:43.977Z,33.80
2019-03-27T20:29:11.038Z,33.80
2019-03-27T20:31:39.121Z,33.80
2019-03-27T20:34:06.114Z,33.80
2019-03-27T20:36:33.114Z,33.80
2019-03-27T20:38:59.893Z,33.80
2019-03-27T20:41:27.033Z,33.80
2019-03-27T20:43:54.021Z,33.80
2019-03-27T20:46:25.519Z,33.90
2019-03-27T20:48:49.774Z,33.80
2019-03-27T20:51:16.564Z,33.80
2019-03-27T20:53:43.371Z,33.80
2019-03-27T20:56:10.116Z,33.80
2019-03-27T20:58:36.925Z,33.80
2019-03-27T21:01:03.730Z,33.80
2019-03-27T21:03:30.675Z,33.80
2019-03-27T21:05:57.403Z,33.80
2019-03-27T21:08:24.135Z,33.80
2019-03-27T21:10:51.158Z,33.80
2019-03-27T21:13:18.249Z,33.30
2019-03-27T21:15:45.599Z,33.80
2019-03-27T21:18:12.386Z,33.80
2019-03-27T21:20:39.128Z,33.80
2019-03-27T21:23:05.882Z,33.80
2019-03-27T21:25:32.756Z,33.80
2019-03-27T21:27:59.496Z,33.80
2019-03-27T21:30:26.652Z,33.80
2019-03-27T21:32:53.388Z,33.80
2019-03-27T21:35:20.154Z,33.80
2019-03-27T21:37:48.204Z,33.80
2019-03-27T21:40:14.951Z,33.80
2019-03-27T21:42:42.888Z,33.80
2019-03-27T21:45:10.262Z,33.80
2019-03-27T21:47:36.984Z,33.80
2019-03-27T21:50:05.385Z,33.80
2019-03-27T21:52:32.239Z,33.80
2019-03-27T21:54:59.365Z,33.80
2019-03-27T21:57:26.510Z,33.80
2019-03-27T21:59:53.268Z,33.80
2019-03-27T22:02:20.448Z,33.80
2019-03-27T22:04:47.827Z,33.80
2019-03-27T22:07:14.611Z,33.80
2019-03-27T22:09:41.342Z,33.80
2019-03-27T22:12:08.191Z,33.80
2019-03-27T22:14:35.216Z,33.80
2019-03-27T22:17:02.054Z,33.80
2019-03-27T22:19:28.807Z,33.80
2019-03-27T22:21:55.628Z,33.80
2019-03-27T22:24:22.503Z,33.80
2019-03-27T22:26:49.217Z,33.80
2019-03-27T22:29:15.986Z,33.80
2019-03-27T22:31:43.936Z,33.80
2019-03-27T22:34:10.985Z,33.80
2019-03-27T22:36:37.846Z,33.80
2019-03-27T22:39:07.320Z,33.80
2019-03-27T22:41:34.087Z,33.80
2019-03-27T22:44:00.823Z,33.80
2019-03-27T22:46:28.092Z,33.80
2019-03-27T22:48:54.836Z,33.60
2019-03-27T22:51:21.639Z,33.80
2019-03-27T22:53:48.425Z,33.80
2019-03-27T22:56:15.159Z,33.80
2019-03-27T22:58:41.972Z,33.80
2019-03-27T23:01:08.821Z,33.80
2019-03-27T23:03:35.891Z,33.80
2019-03-27T23:06:02.747Z,33.80
2019-03-27T23:08:29.990Z,33.20
2019-03-27T23:10:58.073Z,33.80
2019-03-27T23:13:25.127Z,33.80
2019-03-27T23:15:51.865Z,33.80
2019-03-27T23:18:18.724Z,33.70
2019-03-27T23:20:45.454Z,33.70
2019-03-27T23:23:12.218Z,33.80
2019-03-27T23:25:40.537Z,33.70
2019-03-27T23:28:07.588Z,33.70
2019-03-27T23:30:35.017Z,34.30
2019-03-27T23:33:01.739Z,33.60
2019-03-27T23:35:28.844Z,34.30
2019-03-27T23:37:55.596Z,33.70
2019-03-27T23:40:23.028Z,33.70
2019-03-27T23:42:49.968Z,33.70
2019-03-27T23:45:16.704Z,33.60
2019-03-27T23:47:43.670Z,33.70
2019-03-27T23:50:10.405Z,33.60
2019-03-27T23:52:37.203Z,33.60
2019-03-27T23:55:04.963Z,33.60
2019-03-27T23:57:31.749Z,33.60
